Terminal Aerodrome Forecast
Issued by NWS Cleveland, OH

Home | Current Version | Previous Version | Graphics & Text | Print | Product List | Glossary On
Versions: 1 2 3 4 5 6 7 8 9 10 11 12 13 14 15 16 17 18 19 20
390
FTUS41 KCLE 211457 AAA
TAFYNG
TAF AMD
KYNG 211457Z 2115/2212 VRB05KT P6SM SCT025 BKN200
      TEMPO 2115/2117 BKN025
     FM211700 33006KT P6SM SCT035 BKN100
     FM212000 33006KT P6SM FEW045 SCT200
     FM220800 VRB03KT P6SM BKN120=

USA.gov is the U.S. government's official web portal to all federal, state and local government web resources and services.